Time;durP1;ratioP1;P1;durP2;ratioP2;P2;SDS_P1;SDS_P2;PMS_P1;PMS_P2;Temp;Humidity;BMP_temperature;BMP_pressure;BME280_temperature;BME280_humidity;BME280_pressure;Samples;Min_cycle;Max_cycle;Signal;HPM_P1;HPM_P2
2022/08/08 00:01:08;;;;;;;9.90;6.77;;;;;;;13.14;100.00;101596.56;7391147;19;20394;-60
2022/08/08 00:03:47;;;;;;;10.83;6.67;;;;;;;13.13;100.00;101595.66;7373164;19;20425;-60
2022/08/08 00:06:27;;;;;;;11.60;6.70;;;;;;;13.46;100.00;101625.63;7392270;19;20388;-60
2022/08/08 00:09:06;;;;;;;10.93;6.93;;;;;;;13.53;100.00;101625.06;7374348;19;20858;-60
2022/08/08 00:11:40;;;;;;;10.13;6.57;;;;;;;13.55;100.00;101627.72;7399020;19;20401;-60
2022/08/08 00:14:39;;;;;;;13.77;6.17;;;;;;;13.34;100.00;101616.44;7396547;19;20418;-60
2022/08/08 00:17:38;;;;;;;10.13;7.10;;;;;;;13.16;100.00;101610.44;7382659;19;20427;-60
2022/08/08 00:20:33;;;;;;;8.97;6.40;;;;;;;13.15;100.00;101617.34;7395916;19;20945;-60
2022/08/08 00:23:08;;;;;;;11.37;6.30;;;;;;;13.05;100.00;101623.81;7383232;19;20789;-60
2022/08/08 00:25:41;;;;;;;9.73;6.83;;;;;;;12.95;100.00;101627.69;7399038;19;20483;-60
2022/08/08 00:28:23;;;;;;;10.73;6.97;;;;;;;12.76;100.00;101630.25;7374160;19;20443;-60
2022/08/08 00:31:08;;;;;;;9.90;6.80;;;;;;;12.71;100.00;101670.56;7399564;19;20396;-60
2022/08/08 00:37:08;;;;;;;12.30;6.47;;;;;;;12.68;100.00;101710.16;7398323;19;20756;-63
2022/08/08 00:40:08;;;;;;;11.30;6.37;;;;;;;12.56;100.00;101725.97;7394339;19;20439;-60
2022/08/08 00:43:39;;;;;;;10.57;6.83;;;;;;;12.62;100.00;101782.34;7371684;19;20950;-60
2022/08/08 00:46:34;;;;;;;11.17;5.73;;;;;;;12.41;100.00;101806.34;7398442;19;20405;-60
2022/08/08 00:49:57;;;;;;;10.10;6.90;;;;;;;12.47;100.00;101855.84;7394902;19;20424;-60
2022/08/08 00:52:52;;;;;;;9.90;6.73;;;;;;;12.63;100.00;101887.69;7387793;19;20453;-60
2022/08/08 00:55:34;;;;;;;9.90;6.20;;;;;;;12.29;100.00;101874.75;7400859;19;20416;-60
2022/08/08 00:58:49;;;;;;;10.10;7.00;;;;;;;12.25;100.00;101906.44;7390406;19;20414;-60
2022/08/08 01:01:28;;;;;;;13.23;6.83;;;;;;;12.17;100.00;101943.97;7397941;19;20419;-60
2022/08/08 01:04:44;;;;;;;14.60;8.00;;;;;;;12.25;100.00;102007.38;7389632;19;20953;-60
2022/08/08 01:07:55;;;;;;;12.13;7.57;;;;;;;12.47;100.00;102056.81;7387645;19;20916;-60
2022/08/08 01:10:59;;;;;;;16.43;6.67;;;;;;;12.58;100.00;102075.53;7392082;19;20411;-60
2022/08/08 01:13:59;;;;;;;12.47;6.90;;;;;;;12.50;100.00;102063.06;7389801;19;20414;-60
2022/08/08 01:16:55;;;;;;;10.70;6.73;;;;;;;12.63;100.00;102056.88;7398123;19;20378;-60
2022/08/08 01:20:05;;;;;;;11.20;6.73;;;;;;;12.44;100.00;102031.66;7392538;19;20410;-60
2022/08/08 01:23:19;;;;;;;11.07;7.07;;;;;;;12.35;100.00;102031.19;7378684;19;20416;-60
2022/08/08 01:26:38;;;;;;;10.70;7.17;;;;;;;12.45;100.00;102061.91;7396998;19;20414;-60
2022/08/08 01:29:41;;;;;;;10.87;7.10;;;;;;;12.61;100.00;102091.25;7385648;19;20776;-60
2022/08/08 01:33:00;;;;;;;8.90;6.30;;;;;;;12.66;100.00;102082.91;7387744;19;20483;-60
2022/08/08 01:36:13;;;;;;;9.93;6.50;;;;;;;12.78;100.00;102080.06;7396960;19;20390;-60
2022/08/08 01:39:15;;;;;;;11.30;6.23;;;;;;;12.49;100.00;102043.16;7387329;19;20424;-60
2022/08/08 01:41:57;;;;;;;7.60;5.43;;;;;;;12.20;100.00;102046.75;7396136;19;20401;-60
2022/08/08 01:44:42;;;;;;;12.93;7.60;;;;;;;12.12;100.00;102085.09;7396332;19;20942;-60
2022/08/08 01:47:32;;;;;;;10.03;7.10;;;;;;;11.99;100.00;102130.94;7387768;19;20414;-60
2022/08/08 01:50:33;;;;;;;9.73;7.10;;;;;;;12.17;100.00;102196.63;7394279;19;20738;-60
2022/08/08 01:53:15;;;;;;;12.40;7.50;;;;;;;12.10;100.00;102216.09;7382564;19;20411;-60
2022/08/08 01:56:12;;;;;;;10.57;6.50;;;;;;;11.97;100.00;102223.09;7396206;19;20387;-60
2022/08/08 01:59:11;;;;;;;9.20;6.67;;;;;;;11.83;100.00;102223.94;7384526;19;20426;-60
2022/08/08 02:01:56;;;;;;;11.03;8.00;;;;;;;11.96;100.00;102249.75;7396348;19;20482;-60
2022/08/08 02:04:37;;;;;;;10.23;7.17;;;;;;;12.19;100.00;102275.25;7395405;19;20494;-60
2022/08/08 02:07:14;;;;;;;12.50;7.53;;;;;;;12.36;100.00;102276.22;7382818;19;20403;-60
2022/08/08 02:10:14;;;;;;;7.03;5.70;;;;;;;11.83;100.00;102240.34;7393399;19;20768;-60
2022/08/08 02:13:01;;;;;;;9.33;6.33;;;;;;;11.71;100.00;102248.28;7389830;19;20433;-60
2022/08/08 02:15:36;;;;;;;9.20;6.20;;;;;;;11.77;100.00;102272.69;7396260;19;20386;-60
2022/08/08 02:18:12;;;;;;;10.20;6.70;;;;;;;11.61;100.00;102277.84;7387758;19;20437;-60
2022/08/08 02:22:30;;;;;;;11.13;7.50;;;;;;;11.86;100.00;102332.75;7394143;19;20421;-60
2022/08/08 02:23:48;;;;;;;10.40;7.00;;;;;;;12.02;100.00;102353.56;7384553;19;20418;-60
2022/08/08 02:26:28;;;;;;;12.80;7.30;;;;;;;11.75;100.00;102329.50;7396071;19;20756;-60
2022/08/08 02:29:08;;;;;;;13.17;7.20;;;;;;;11.73;100.00;102350.09;7385963;19;20445;-60
2022/08/08 02:32:03;;;;;;;10.50;6.20;;;;;;;11.34;100.00;102351.94;7393540;19;20388;-60
2022/08/08 02:34:53;;;;;;;10.20;6.20;;;;;;;11.40;100.00;102392.78;7396956;19;20439;-60
2022/08/08 02:37:56;;;;;;;7.53;6.30;;;;;;;11.72;100.00;102428.47;7386198;19;20434;-60
2022/08/08 02:40:37;;;;;;;10.60;6.67;;;;;;;11.85;100.00;102443.03;7392761;19;20759;-60
2022/08/08 02:43:41;;;;;;;11.63;7.57;;;;;;;11.70;100.00;102436.91;7384240;19;20429;-60
2022/08/08 02:46:53;;;;;;;10.47;7.33;;;;;;;11.83;100.00;102434.31;7393743;19;20750;-60
2022/08/08 02:49:50;;;;;;;10.20;7.43;;;;;;;11.87;100.00;102441.47;7392878;19;20525;-60
2022/08/08 02:52:47;;;;;;;14.17;8.43;;;;;;;11.82;100.00;102440.28;7385443;19;20412;-60
2022/08/08 02:55:52;;;;;;;10.93;7.67;;;;;;;11.94;100.00;102447.91;7395144;19;20430;-60
2022/08/08 02:59:03;;;;;;;10.80;7.67;;;;;;;11.86;100.00;102444.81;7387539;19;20954;-60
2022/08/08 03:02:29;;;;;;;11.30;7.20;;;;;;;11.70;100.00;102434.31;7394854;19;20379;-60
2022/08/08 03:05:28;;;;;;;10.07;7.10;;;;;;;11.54;100.00;102429.88;7394413;19;20449;-60
2022/08/08 03:08:57;;;;;;;12.03;7.27;;;;;;;11.54;100.00;102435.03;7383758;19;20457;-60
2022/08/08 03:12:08;;;;;;;11.20;7.83;;;;;;;11.81;100.00;102476.38;7393232;19;20394;-60
2022/08/08 03:14:58;;;;;;;11.80;7.27;;;;;;;11.72;100.00;102482.75;7390917;19;20428;-60
2022/08/08 03:17:53;;;;;;;14.23;7.37;;;;;;;11.69;100.00;102490.28;7387389;19;20417;-60
2022/08/08 03:20:49;;;;;;;13.90;7.37;;;;;;;11.37;100.00;102476.16;7392610;19;20461;-60
2022/08/08 03:23:23;;;;;;;10.03;6.63;;;;;;;11.63;100.00;102501.94;7385074;19;20436;-60
2022/08/08 03:26:08;;;;;;;11.93;6.80;;;;;;;11.52;100.00;102503.81;7393840;19;20398;-60
2022/08/08 03:28:43;;;;;;;8.80;6.33;;;;;;;11.25;100.00;102504.69;7381091;19;20420;-60
2022/08/08 03:33:58;;;;;;;10.30;6.90;;;;;;;11.39;100.00;102585.69;7386055;19;20434;-60
2022/08/08 03:36:29;;;;;;;9.90;6.83;;;;;;;11.55;100.00;102643.63;7393521;19;20391;-60
2022/08/08 03:39:04;;;;;;;12.23;8.00;;;;;;;11.85;100.00;102680.97;7383273;19;20944;-60
2022/08/08 03:41:44;;;;;;;9.83;7.50;;;;;;;12.08;100.00;102678.16;7392287;19;20750;-60
2022/08/08 03:44:35;;;;;;;10.07;7.10;;;;;;;12.13;100.00;102681.97;7390829;19;20437;-60
2022/08/08 03:47:07;;;;;;;10.20;6.57;;;;;;;12.28;100.00;102672.63;7385028;19;20386;-60
2022/08/08 03:49:50;;;;;;;11.07;7.63;;;;;;;12.00;100.00;102650.06;7391789;19;20415;-60
2022/08/08 03:52:31;;;;;;;11.13;6.90;;;;;;;12.06;100.00;102643.53;7385167;19;20453;-59
2022/08/08 03:55:10;;;;;;;12.63;7.10;;;;;;;11.96;100.00;102626.50;7393062;19;20393;-60
2022/08/08 03:58:00;;;;;;;9.67;6.10;;;;;;;11.70;100.00;102603.25;7383328;19;20409;-60
2022/08/08 04:00:54;;;;;;;15.93;7.37;;;;;;;11.49;100.00;102607.91;7390700;19;20801;-60
2022/08/08 04:03:47;;;;;;;11.93;6.70;;;;;;;11.60;100.00;102618.97;7386122;19;20454;-60
2022/08/08 04:06:28;;;;;;;11.60;7.80;;;;;;;11.88;100.00;102628.56;7392837;19;20393;-60
2022/08/08 04:08:59;;;;;;;10.33;6.90;;;;;;;12.04;100.00;102639.97;7383791;19;20955;-60
2022/08/08 04:11:44;;;;;;;8.67;6.57;;;;;;;11.95;100.00;102620.41;7392595;19;20390;-60
2022/08/08 04:14:28;;;;;;;11.00;7.43;;;;;;;12.20;100.00;102627.22;7391593;19;20414;-60
2022/08/08 04:17:04;;;;;;;11.57;7.73;;;;;;;12.35;100.00;102611.78;7382088;19;20416;-60
2022/08/08 04:19:50;;;;;;;9.70;6.63;;;;;;;12.35;100.00;102585.03;7390571;19;20414;-60
2022/08/08 04:22:20;;;;;;;9.50;7.00;;;;;;;12.49;100.00;102579.03;7382280;19;20933;-60
2022/08/08 04:24:52;;;;;;;9.93;6.73;;;;;;;12.60;100.00;102556.38;7390854;19;20381;-60
2022/08/08 04:27:27;;;;;;;11.83;6.50;;;;;;;12.63;100.00;102537.56;7384281;19;20418;-60
2022/08/08 04:30:16;;;;;;;13.43;7.13;;;;;;;12.69;100.00;102514.63;7392358;19;20413;-60
2022/08/08 04:32:48;;;;;;;10.40;5.90;;;;;;;12.51;100.00;102480.75;7384152;19;20506;-60
2022/08/08 04:35:19;;;;;;;9.40;6.50;;;;;;;12.52;100.00;102454.06;7392215;19;20378;-60
2022/08/08 04:37:51;;;;;;;9.23;6.30;;;;;;;12.51;100.00;102447.09;7384022;19;20403;-60
2022/08/08 04:40:22;;;;;;;10.73;6.40;;;;;;;12.63;100.00;102441.75;7390269;19;20508;-60
2022/08/08 04:42:55;;;;;;;12.30;7.60;;;;;;;12.86;100.00;102439.66;7384200;19;20466;-60
2022/08/08 04:45:30;;;;;;;9.37;6.63;;;;;;;12.95;100.00;102416.88;7392959;19;20394;-60
2022/08/08 04:48:02;;;;;;;10.40;7.10;;;;;;;12.95;100.00;102390.97;7383182;19;20413;-60
2022/08/08 04:50:32;;;;;;;9.97;6.50;;;;;;;12.83;100.00;102348.00;7393194;19;20424;-60
2022/08/08 04:53:07;;;;;;;8.47;5.33;;;;;;;12.83;100.00;102336.75;7383228;19;20421;-60
2022/08/08 04:55:57;;;;;;;29.60;16.70;;;;;;;12.98;100.00;102326.38;7398546;19;20385;-60
2022/08/08 04:58:30;;;;;;;18.37;10.90;;;;;;;13.30;100.00;102314.34;7392070;19;20969;-60
2022/08/08 05:01:01;;;;;;;45.87;29.00;;;;;;;13.55;100.00;102274.25;7398520;19;20410;-60
2022/08/08 05:03:39;;;;;;;51.70;32.60;;;;;;;13.74;100.00;102212.97;7386469;19;20417;-61
2022/08/08 05:06:29;;;;;;;29.90;19.93;;;;;;;13.81;100.00;102132.06;7398073;19;20390;-60
2022/08/08 05:08:58;;;;;;;28.93;18.10;;;;;;;14.10;100.00;102078.09;7386505;19;20438;-60
2022/08/08 05:11:34;;;;;;;13.67;8.57;;;;;;;14.02;100.00;101975.66;7398115;19;20393;-60
2022/08/08 05:14:11;;;;;;;20.00;13.47;;;;;;;14.28;100.00;101943.13;7389922;19;20434;-60
2022/08/08 05:16:43;;;;;;;16.30;9.40;;;;;;;14.70;100.00;101895.63;7397950;19;20449;-60
2022/08/08 05:19:29;;;;;;;17.80;11.23;;;;;;;14.92;100.00;101813.41;7394997;19;20486;-60
2022/08/08 05:22:18;;;;;;;9.13;7.10;;;;;;;14.67;100.00;101759.53;7390683;19;20439;-60
2022/08/08 05:24:48;;;;;;;49.57;32.27;;;;;;;14.74;100.00;101752.88;7396443;19;20402;-60
2022/08/08 05:27:18;;;;;;;50.70;32.40;;;;;;;14.69;100.00;101742.31;7384121;19;20861;-60
2022/08/08 05:29:50;;;;;;;11.03;6.50;;;;;;;14.25;100.00;101730.13;7395225;19;20778;-60
2022/08/08 05:32:20;;;;;;;11.53;7.03;;;;;;;14.07;100.00;101765.69;7388779;19;20408;-60
2022/08/08 05:35:01;;;;;;;18.10;9.50;;;;;;;14.36;100.00;101803.28;7397217;19;20921;-60
2022/08/08 05:37:38;;;;;;;14.90;6.17;;;;;;;14.17;100.00;101802.47;7387380;19;20489;-60
2022/08/08 05:40:22;;;;;;;8.23;5.73;;;;;;;14.06;100.00;101805.44;7394133;19;20824;-60
2022/08/08 05:43:01;;;;;;;8.03;5.87;;;;;;;13.98;100.00;101807.69;7386703;19;20936;-60
2022/08/08 05:45:48;;;;;;;9.43;5.40;;;;;;;13.94;100.00;101816.16;7395036;19;20452;-61
2022/08/08 05:48:30;;;;;;;9.27;5.27;;;;;;;13.83;100.00;101807.88;7387023;19;20422;-60
2022/08/08 05:51:03;;;;;;;8.93;5.43;;;;;;;13.79;100.00;101805.97;7397164;19;20422;-60
2022/08/08 05:53:44;;;;;;;10.33;5.13;;;;;;;13.75;100.00;101816.19;7387094;19;20411;-60
2022/08/08 05:56:39;;;;;;;8.37;4.80;;;;;;;13.82;100.00;101821.66;7397043;19;20388;-60
2022/08/08 05:59:19;;;;;;;5.57;4.40;;;;;;;13.85;100.00;101821.81;7388629;19;20414;-60
2022/08/08 06:05:06;;;;;;;7.67;4.70;;;;;;;14.00;100.00;101769.72;7394974;19;20387;-60
2022/08/08 06:07:56;;;;;;;11.17;5.60;;;;;;;14.11;100.00;101757.22;7388457;19;20415;-60
2022/08/08 06:10:40;;;;;;;7.60;4.07;;;;;;;14.22;100.00;101729.13;7394256;19;20926;-60
2022/08/08 06:13:12;;;;;;;5.40;3.30;;;;;;;14.37;100.00;101710.72;7385928;19;20410;-60
2022/08/08 06:15:53;;;;;;;6.80;4.17;;;;;;;14.48;100.00;101669.59;7395976;19;20793;-60
2022/08/08 06:18:28;;;;;;;10.03;3.47;;;;;;;14.57;100.00;101660.47;7387143;19;20434;-60
2022/08/08 06:21:00;;;;;;;11.20;5.87;;;;;;;14.66;100.00;101646.09;7395639;19;20397;-60
2022/08/08 06:23:40;;;;;;;11.23;4.90;;;;;;;14.85;100.00;101616.53;7382810;19;20407;-60
2022/08/08 06:26:32;;;;;;;52.63;17.67;;;;;;;14.99;100.00;101602.34;7393382;19;20919;-62
2022/08/08 06:29:17;;;;;;;11.40;5.70;;;;;;;15.06;100.00;101597.38;7387131;19;20415;-62
2022/08/08 06:32:11;;;;;;;9.80;5.63;;;;;;;15.24;100.00;101595.44;7385818;19;20745;-62
2022/08/08 06:34:51;;;;;;;15.90;7.40;;;;;;;15.46;100.00;101593.63;7395463;19;20456;-62
2022/08/08 06:37:46;;;;;;;25.00;10.80;;;;;;;15.83;100.00;101587.91;7386602;19;20956;-62
2022/08/08 06:40:20;;;;;;;9.90;4.30;;;;;;;15.90;100.00;101587.28;7392124;19;20422;-62
2022/08/08 06:42:57;;;;;;;6.13;3.40;;;;;;;15.86;100.00;101593.19;7387649;19;20425;-62
2022/08/08 06:45:28;;;;;;;20.90;7.97;;;;;;;16.12;100.00;101590.59;7394233;19;20897;-61
2022/08/08 06:47:57;;;;;;;6.43;3.37;;;;;;;16.13;100.00;101585.44;7387053;19;20773;-62
2022/08/08 06:50:35;;;;;;;9.93;5.53;;;;;;;16.11;100.00;101587.13;7396839;19;20503;-62
2022/08/08 06:53:09;;;;;;;9.40;4.03;;;;;;;16.30;100.00;101585.97;7385675;19;20756;-62
2022/08/08 06:55:49;;;;;;;7.80;3.97;;;;;;;16.19;100.00;101582.13;7395039;19;20389;-62
2022/08/08 06:58:31;;;;;;;9.07;4.20;;;;;;;16.05;100.00;101584.31;7380957;19;20416;-61
2022/08/08 07:01:03;;;;;;;17.27;9.57;;;;;;;16.04;100.00;101588.63;7393176;19;20397;-61
2022/08/08 07:04:02;;;;;;;14.30;6.40;;;;;;;16.22;100.00;101596.97;7377070;19;20446;-61
2022/08/08 07:06:59;;;;;;;16.87;11.37;;;;;;;16.49;100.00;101596.06;7390524;19;20390;-61
2022/08/08 07:09:40;;;;;;;21.63;11.17;;;;;;;16.56;100.00;101591.09;7390267;19;20434;-61
2022/08/08 07:12:31;;;;;;;27.33;14.43;;;;;;;16.70;100.00;101590.63;7378950;19;20445;-61
2022/08/08 07:15:05;;;;;;;15.87;8.50;;;;;;;16.80;100.00;101578.75;7392478;19;20391;-62
2022/08/08 07:17:57;;;;;;;16.97;8.70;;;;;;;16.90;100.00;101587.72;7382248;19;20420;-61
2022/08/08 07:20:48;;;;;;;8.90;4.20;;;;;;;16.81;100.00;101607.47;7390066;19;20428;-61
2022/08/08 07:23:25;;;;;;;11.03;5.10;;;;;;;16.68;100.00;101624.47;7380572;19;20430;-61
2022/08/08 07:25:58;;;;;;;11.20;4.67;;;;;;;16.80;100.00;101634.38;7391211;19;20392;-61
2022/08/08 07:28:27;;;;;;;7.30;3.80;;;;;;;16.87;100.00;101651.94;7379652;19;20425;-61
2022/08/08 07:31:00;;;;;;;11.73;5.07;;;;;;;16.99;100.00;101646.19;7391797;19;20393;-61
2022/08/08 07:33:30;;;;;;;8.73;5.27;;;;;;;17.04;100.00;101649.00;7379338;19;20424;-61
2022/08/08 07:36:21;;;;;;;10.80;5.77;;;;;;;17.22;100.00;101633.00;7392109;19;20390;-61
2022/08/08 07:38:55;;;;;;;13.17;4.30;;;;;;;17.36;100.00;101649.03;7376989;19;21104;-61
2022/08/08 07:41:25;;;;;;;9.10;4.20;;;;;;;17.46;100.00;101641.44;7392048;19;20425;-62
2022/08/08 07:43:57;;;;;;;7.83;3.77;;;;;;;17.54;100.00;101666.03;7381928;19;20418;-62
2022/08/08 07:46:27;;;;;;;11.13;5.63;;;;;;;17.61;100.00;101672.28;7390243;19;20378;-61
2022/08/08 07:48:59;;;;;;;8.33;3.70;;;;;;;17.68;100.00;101693.38;7384298;19;20427;-61
2022/08/08 07:51:29;;;;;;;8.93;4.90;;;;;;;17.77;100.00;101691.84;7392233;19;20393;-61
2022/08/08 07:54:29;;;;;;;13.37;7.50;;;;;;;17.89;100.00;101692.19;7383957;19;20490;-62
2022/08/08 07:57:05;;;;;;;10.63;5.43;;;;;;;18.03;100.00;101720.38;7385901;19;20376;-63
2022/08/08 07:59:44;;;;;;;6.70;3.73;;;;;;;18.07;100.00;101720.53;7390770;19;20419;-59
2022/08/08 08:02:23;;;;;;;10.43;6.70;;;;;;;18.18;100.00;101756.47;7382465;19;20405;-59
2022/08/08 08:05:14;;;;;;;7.90;3.30;;;;;;;18.35;100.00;101780.41;7393149;19;20491;-59
2022/08/08 08:07:44;;;;;;;5.10;3.50;;;;;;;18.50;100.00;101785.16;7386124;19;20933;-60
2022/08/08 08:10:18;;;;;;;7.17;3.67;;;;;;;18.38;100.00;101790.97;7390628;19;20435;-60
2022/08/08 08:13:19;;;;;;;8.30;3.80;;;;;;;18.53;100.00;101753.88;7384214;19;20431;-60
2022/08/08 08:16:10;;;;;;;4.93;3.17;;;;;;;18.67;100.00;101785.56;7396168;19;20399;-60
2022/08/08 08:18:44;;;;;;;8.83;4.00;;;;;;;18.81;100.00;101792.88;7384304;19;20419;-59
2022/08/08 08:21:21;;;;;;;8.80;4.63;;;;;;;18.74;100.00;101797.97;7393310;19;20407;-60
2022/08/08 08:24:10;;;;;;;16.63;4.47;;;;;;;18.80;100.00;101818.13;7386171;19;20414;-60
2022/08/08 08:26:43;;;;;;;4.27;2.60;;;;;;;18.88;100.00;101806.13;7390306;19;20404;-59
2022/08/08 08:29:21;;;;;;;7.00;3.57;;;;;;;18.95;100.00;101781.00;7385581;19;20410;-59
2022/08/08 08:31:50;;;;;;;7.50;4.03;;;;;;;19.01;100.00;101768.09;7397114;19;20409;-59
2022/08/08 08:34:26;;;;;;;14.93;8.07;;;;;;;19.07;100.00;101742.97;7399700;19;20450;-59
2022/08/08 08:37:02;;;;;;;147.43;42.67;;;;;;;19.02;100.00;101756.81;7394917;19;20406;-60
2022/08/08 08:39:37;;;;;;;16.57;8.10;;;;;;;19.08;100.00;101765.63;7396748;19;20832;-60
2022/08/08 08:42:30;;;;;;;7.33;2.90;;;;;;;19.00;100.00;101773.25;7389189;19;20414;-60
2022/08/08 08:45:06;;;;;;;43.07;29.33;;;;;;;19.24;100.00;101787.78;7398057;19;20419;-59
2022/08/08 08:47:52;;;;;;;58.37;18.30;;;;;;;19.27;100.00;101819.22;7392976;19;20433;-60
2022/08/08 08:50:23;;;;;;;8.70;2.97;;;;;;;19.17;100.00;101833.84;7400075;19;20422;-59
2022/08/08 08:53:04;;;;;;;24.50;14.23;;;;;;;19.23;100.00;101801.72;7390992;19;20426;-60
2022/08/08 08:55:55;;;;;;;11.53;3.73;;;;;;;19.22;100.00;101813.91;7401486;19;20388;-59
2022/08/08 08:58:38;;;;;;;4.30;2.37;;;;;;;19.13;100.00;101827.66;7391080;19;20419;-59
2022/08/08 09:01:11;;;;;;;9.33;3.20;;;;;;;19.13;100.00;101805.84;7399392;19;20403;-60
2022/08/08 09:03:46;;;;;;;8.20;3.03;;;;;;;19.29;100.00;101791.38;7391373;19;20843;-60
2022/08/08 09:06:22;;;;;;;5.57;3.43;;;;;;;19.32;100.00;101812.38;7399470;19;20407;-62
2022/08/08 09:09:04;;;;;;;4.30;2.40;;;;;;;19.17;100.00;101833.84;7392053;19;20545;-60
2022/08/08 09:11:47;;;;;;;17.67;10.47;;;;;;;19.38;100.00;101829.97;7397981;19;20469;-60
2022/08/08 09:14:33;;;;;;;34.90;9.97;;;;;;;19.44;100.00;101864.13;7393555;19;20411;-60
2022/08/08 09:17:03;;;;;;;12.43;4.07;;;;;;;19.34;100.00;101901.38;7392199;19;20404;-60
2022/08/08 09:19:43;;;;;;;16.13;5.20;;;;;;;19.42;100.00;101884.09;7395842;19;20412;-60
2022/08/08 09:22:33;;;;;;;16.67;5.03;;;;;;;19.33;100.00;101933.63;7387474;19;20431;-60
2022/08/08 09:25:05;;;;;;;6.83;2.60;;;;;;;19.21;100.00;101942.03;7397618;19;20391;-60
2022/08/08 09:27:38;;;;;;;7.10;1.97;;;;;;;19.15;100.00;101951.53;7390366;19;20435;-60
2022/08/08 09:30:29;;;;;;;18.60;11.60;;;;;;;19.33;100.00;101944.06;7394732;19;20422;-60
2022/08/08 09:33:02;;;;;;;19.07;9.87;;;;;;;19.55;100.00;101935.88;7386720;19;20409;-60
2022/08/08 09:35:54;;;;;;;6.23;3.17;;;;;;;19.58;100.00;101963.84;7397435;19;20418;-60
2022/08/08 09:38:32;;;;;;;31.33;16.20;;;;;;;19.49;100.00;101955.81;7388901;19;20422;-60
2022/08/08 09:41:07;;;;;;;8.60;4.33;;;;;;;19.58;100.00;101942.03;7398202;19;20391;-60
2022/08/08 09:43:47;;;;;;;6.67;4.10;;;;;;;19.56;100.00;101948.13;7388271;19;20417;-60
2022/08/08 09:46:40;;;;;;;7.10;3.20;;;;;;;19.74;100.00;101938.91;7396820;19;20847;-60
2022/08/08 09:49:25;;;;;;;9.63;4.67;;;;;;;19.95;100.00;101935.91;7394062;19;20930;-60
2022/08/08 09:52:18;;;;;;;7.33;1.80;;;;;;;19.88;100.00;101965.41;7386862;19;20379;-61
2022/08/08 09:55:08;;;;;;;5.43;2.33;;;;;;;19.82;100.00;101950.47;7397055;19;20380;-60
2022/08/08 09:57:47;;;;;;;12.60;6.70;;;;;;;19.74;100.00;101959.84;7389228;19;20423;-60
2022/08/08 10:00:25;;;;;;;17.43;11.93;;;;;;;19.99;100.00;101954.34;7394159;19;20941;-60
2022/08/08 10:03:19;;;;;;;21.67;12.03;;;;;;;20.07;100.00;101960.59;7388566;19;20419;-60
2022/08/08 10:05:50;;;;;;;9.30;4.70;;;;;;;19.99;100.00;101967.44;7396314;19;20383;-60
2022/08/08 10:08:20;;;;;;;16.77;11.57;;;;;;;20.02;100.00;101955.28;7387927;19;20972;-60
2022/08/08 10:10:50;;;;;;;6.60;3.43;;;;;;;20.00;100.00;101958.72;7394040;19;20831;-60
2022/08/08 10:13:28;;;;;;;13.07;6.57;;;;;;;19.99;100.00;101972.66;7386948;19;20438;-61
2022/08/08 10:16:07;;;;;;;6.07;2.40;;;;;;;20.14;100.00;101969.50;7396421;19;20467;-60
2022/08/08 10:18:40;;;;;;;12.73;4.93;;;;;;;20.04;100.00;101960.56;7386510;19;20422;-60
2022/08/08 10:21:12;;;;;;;23.00;15.20;;;;;;;20.09;100.00;101941.47;7396913;19;20463;-60
2022/08/08 10:24:00;;;;;;;17.30;9.00;;;;;;;20.23;100.00;101970.56;7388437;19;20974;-60
2022/08/08 10:26:33;;;;;;;42.40;16.03;;;;;;;20.51;100.00;101978.13;7395202;19;20458;-60
2022/08/08 10:29:33;;;;;;;6.40;2.33;;;;;;;20.53;100.00;101986.88;7391041;19;20415;-60
2022/08/08 10:32:34;;;;;;;5.83;2.27;;;;;;;20.29;100.00;101980.28;7385722;19;21264;-60
2022/08/08 10:35:12;;;;;;;5.97;1.73;;;;;;;20.32;100.00;101979.47;7397625;19;20407;-60
2022/08/08 10:38:04;;;;;;;6.00;2.90;;;;;;;20.67;100.00;101967.91;7389702;19;20930;-60
2022/08/08 10:40:39;;;;;;;6.60;1.93;;;;;;;20.77;100.00;101970.72;7394922;19;20419;-60
2022/08/08 10:43:09;;;;;;;33.50;16.77;;;;;;;20.68;100.00;101980.16;7385154;19;20418;-60
2022/08/08 10:45:46;;;;;;;9.77;4.37;;;;;;;20.94;100.00;101977.16;7395492;19;20910;-60
2022/08/08 10:48:33;;;;;;;5.80;2.00;;;;;;;20.80;100.00;101972.53;7385245;19;20943;-60
2022/08/08 10:51:27;;;;;;;25.83;14.17;;;;;;;20.86;100.00;101977.91;7392808;19;20384;-60
2022/08/08 10:54:09;;;;;;;3.63;1.60;;;;;;;21.08;100.00;101998.41;7384565;19;20439;-61
2022/08/08 10:56:39;;;;;;;9.73;5.60;;;;;;;20.87;100.00;102003.28;7394652;19;20388;-59
2022/08/08 10:59:14;;;;;;;13.20;5.87;;;;;;;20.84;100.00;102013.72;7383835;19;20430;-60
2022/08/08 11:01:48;;;;;;;14.50;7.37;;;;;;;20.84;100.00;102018.97;7395548;19;20926;-60
2022/08/08 11:04:23;;;;;;;6.80;2.00;;;;;;;20.88;100.00;102012.91;7396837;19;21501;-60
2022/08/08 11:07:03;;;;;;;8.03;3.17;;;;;;;21.27;100.00;102023.25;7387434;19;20399;-61
2022/08/08 11:09:35;;;;;;;20.97;11.43;;;;;;;21.44;100.00;102050.63;7392757;19;20754;-59
2022/08/08 11:12:11;;;;;;;4.07;1.50;;;;;;;21.30;100.00;102045.16;7388058;19;20404;-59
2022/08/08 11:14:53;;;;;;;5.97;2.20;;;;;;;21.36;100.00;102043.47;7393992;19;20388;-59
2022/08/08 11:17:25;;;;;;;13.63;5.90;;;;;;;21.65;100.00;102035.22;7372282;19;20415;-59
2022/08/08 11:20:16;;;;;;;9.77;3.30;;;;;;;21.81;100.00;102041.63;7391784;19;20407;-60
2022/08/08 11:22:57;;;;;;;4.23;2.00;;;;;;;21.69;100.00;102030.06;7379697;19;20418;-59
2022/08/08 11:25:29;;;;;;;40.97;18.43;;;;;;;21.84;100.00;102044.31;7393886;19;20384;-59
2022/08/08 11:28:25;;;;;;;18.43;8.30;;;;;;;21.95;100.00;102037.44;7375827;19;20759;-59
2022/08/08 11:31:01;;;;;;;15.00;4.73;;;;;;;22.18;100.00;102036.91;7393601;19;20820;-59
2022/08/08 11:33:34;;;;;;;8.10;1.70;;;;;;;22.36;100.00;102038.88;7385895;19;20419;-59
2022/08/08 11:36:24;;;;;;;4.57;2.03;;;;;;;22.14;100.00;102037.72;7393387;19;20986;-59
2022/08/08 11:38:59;;;;;;;10.47;4.90;;;;;;;22.01;100.00;102028.78;7380953;19;20419;-60
2022/08/08 11:41:31;;;;;;;4.83;1.60;;;;;;;21.82;100.00;102027.63;7393725;19;20411;-60
2022/08/08 11:44:04;;;;;;;15.83;5.77;;;;;;;21.88;100.00;102032.97;7383868;19;20435;-60
2022/08/08 11:46:35;;;;;;;7.63;2.90;;;;;;;21.97;100.00;102033.13;7393154;19;20376;-60
2022/08/08 11:49:10;;;;;;;18.30;6.73;;;;;;;21.91;100.00;102043.53;7382160;19;20431;-60
2022/08/08 11:51:42;;;;;;;8.03;3.40;;;;;;;22.14;100.00;102040.34;7395867;19;20925;-59
2022/08/08 11:54:31;;;;;;;14.53;6.03;;;;;;;22.31;100.00;102031.81;7381850;19;21095;-60
2022/08/08 11:57:12;;;;;;;10.33;3.70;;;;;;;22.32;100.00;102023.06;7376998;19;20395;-60
2022/08/08 11:59:48;;;;;;;18.50;7.53;;;;;;;22.21;100.00;102026.41;7390225;19;20407;-59
2022/08/08 12:02:34;;;;;;;10.87;3.23;;;;;;;22.28;100.00;102037.00;7388050;19;20403;-60
2022/08/08 12:05:08;;;;;;;9.70;3.60;;;;;;;22.15;100.00;102036.84;7400721;19;20738;-60
2022/08/08 12:07:50;;;;;;;4.60;1.40;;;;;;;21.73;100.00;102035.38;7377813;19;20434;-61
2022/08/08 12:10:25;;;;;;;22.00;7.87;;;;;;;21.60;100.00;102019.41;7397058;19;20430;-61
2022/08/08 12:13:05;;;;;;;3.57;1.50;;;;;;;21.75;100.00;102025.78;7389591;19;20438;-60
2022/08/08 12:15:36;;;;;;;11.97;4.13;;;;;;;22.04;100.00;102031.44;7400607;19;20403;-61
2022/08/08 12:18:17;;;;;;;6.03;1.60;;;;;;;21.96;100.00;102041.84;7391296;19;20456;-61
2022/08/08 12:20:51;;;;;;;6.03;1.43;;;;;;;22.11;100.00;102040.31;7400055;19;20431;-60
2022/08/08 12:23:30;;;;;;;3.13;1.10;;;;;;;22.19;100.00;102033.41;7390512;19;20478;-60
2022/08/08 12:26:20;;;;;;;4.93;1.70;;;;;;;22.04;100.00;102026.19;7399506;19;20459;-60
2022/08/08 12:29:03;;;;;;;5.13;1.37;;;;;;;22.17;100.00;102023.72;7388641;19;20434;-60
2022/08/08 12:31:34;;;;;;;6.50;2.50;;;;;;;22.42;100.00;102039.81;7398802;19;20914;-59
2022/08/08 12:34:34;;;;;;;4.87;2.00;;;;;;;22.70;100.00;102041.06;7389573;19;20480;-59